Cole Camp, Missouri
Current Conditions -  °F | °C
As of 12:53 AM on Tuesday 21 Oct 2014 (Local Time) from KDMO Reporting Station
Clear Clear  
Wind Chill: 52°   Ceiling: Unl
Heat Index: 52°   Visibility: 10mi
Dew Point: 45°   Wind: 0mph
Humidity: 77%   Direction: NA
Pressure: 30.08"   Gusts: NA
Location:  38.46°N, 93.2°W
Report Text: KDMO 210553Z AUTO 00000KT 10SM CLR 11/07 A3008 RMK AO2 SLP183 T01110072 10183 20111 402440111 51004
Loading
Personal Weather Stations






























Interactive Weather Map
Tropical Storm Tracking
New forecast layout! Learn more

10-Day Weather Forecast

Advertisements
Track Severe Weather on mobile